Time;durP1;ratioP1;P1;durP2;ratioP2;P2;SDS_P1;SDS_P2;PMS_P1;PMS_P2;Temp;Humidity;BMP_temperature;BMP_pressure;BME280_temperature;BME280_humidity;BME280_pressure;Samples;Min_cycle;Max_cycle;Signal;HPM_P1;HPM_P2
2022/12/28 00:01:27;;;;;;;27.87;16.65;;;;;;;2.49;76.55;95264.01;1798030;79;21137;-44
2022/12/28 00:03:54;;;;;;;24.00;14.93;;;;;;;2.40;76.39;95267.08;1795410;79;20946;-44
2022/12/28 00:06:22;;;;;;;25.30;14.63;;;;;;;2.32;76.50;95270.15;1794541;78;20985;-44
2022/12/28 00:08:53;;;;;;;24.90;16.00;;;;;;;2.24;76.39;95262.55;1780550;78;21000;-44
2022/12/28 00:11:21;;;;;;;24.25;15.08;;;;;;;2.13;76.25;95265.03;1790744;79;21264;-44
2022/12/28 00:13:48;;;;;;;19.65;13.93;;;;;;;2.02;76.85;95260.11;1792188;79;21043;-44
2022/12/28 00:16:30;;;;;;;25.08;14.65;;;;;;;1.99;76.72;95257.56;1811759;78;20999;-44
2022/12/28 00:19:01;;;;;;;40.40;23.60;;;;;;;1.94;76.73;95262.60;1788755;79;21057;-44
2022/12/28 00:21:28;;;;;;;40.17;22.25;;;;;;;1.92;77.14;95271.70;1803205;79;21435;-45
2022/12/28 00:23:56;;;;;;;34.53;20.57;;;;;;;1.91;76.86;95279.61;1782467;79;21525;-44
2022/12/28 00:26:23;;;;;;;28.40;18.42;;;;;;;1.85;76.70;95282.49;1761162;79;20935;-45
2022/12/28 00:28:50;;;;;;;26.27;15.75;;;;;;;1.75;76.68;95279.16;1790637;79;20961;-44
2022/12/28 00:31:17;;;;;;;24.47;15.48;;;;;;;1.65;76.80;95287.22;1795261;78;21171;-44
2022/12/28 00:33:45;;;;;;;28.15;17.02;;;;;;;1.54;77.14;95285.76;1708952;82;21498;-44
2022/12/28 00:36:13;;;;;;;25.30;17.70;;;;;;;1.52;77.35;95289.42;1736596;81;21325;-44
2022/12/28 00:38:41;;;;;;;30.90;19.25;;;;;;;1.52;77.84;95290.02;1785096;78;21450;-43
2022/12/28 00:41:08;;;;;;;35.63;20.55;;;;;;;1.59;77.97;95293.56;1801646;79;20973;-44
2022/12/28 00:43:36;;;;;;;40.50;21.52;;;;;;;1.64;78.16;95297.84;1733088;80;21636;-45
2022/12/28 00:46:03;;;;;;;45.60;24.12;;;;;;;1.64;77.88;95302.69;1769291;80;21070;-45
2022/12/28 00:48:31;;;;;;;70.20;31.77;;;;;;;1.67;77.88;95298.46;1769217;81;21076;-44
2022/12/28 00:51:13;;;;;;;55.95;27.37;;;;;;;1.70;77.74;95301.17;1769126;81;21014;-45
2022/12/28 00:53:40;;;;;;;49.80;25.72;;;;;;;1.67;77.50;95304.65;1710205;83;21033;-44
2022/12/28 00:56:16;;;;;;;52.53;27.05;;;;;;;1.63;77.54;95309.27;1711413;82;21035;-45
2022/12/28 00:58:43;;;;;;;59.13;33.08;;;;;;;1.61;77.36;95306.16;1707052;83;21517;-44
2022/12/28 01:01:15;;;;;;;55.60;31.65;;;;;;;1.57;77.37;95310.79;1706793;83;22416;-44
2022/12/28 01:03:42;;;;;;;47.70;27.07;;;;;;;1.58;77.76;95308.84;1683044;83;21683;-44
2022/12/28 01:06:10;;;;;;;35.45;22.30;;;;;;;1.62;77.71;95313.14;1660838;85;21495;-44
2022/12/28 01:08:38;;;;;;;40.52;21.95;;;;;;;1.64;77.51;95312.19;1665283;85;21806;-44
2022/12/28 01:11:16;;;;;;;27.42;14.40;;;;;;;1.52;77.08;95311.11;1718151;83;21572;-44
2022/12/28 01:13:43;;;;;;;35.15;18.32;;;;;;;1.41;77.20;95298.08;1707645;82;22006;-45
2022/12/28 01:16:19;;;;;;;36.28;19.23;;;;;;;1.36;77.58;95304.41;1688673;83;21522;-45
2022/12/28 01:18:47;;;;;;;40.75;21.82;;;;;;;1.37;77.25;95306.76;1718297;83;20993;-44
2022/12/28 01:21:18;;;;;;;33.45;20.82;;;;;;;1.23;77.05;95306.63;1689898;83;21062;-43
2022/12/28 01:23:45;;;;;;;28.50;17.27;;;;;;;1.16;77.38;95306.55;1713833;83;20945;-44
2022/12/28 01:26:13;;;;;;;33.53;18.62;;;;;;;1.13;77.39;95314.08;1717658;83;21151;-44
2022/12/28 01:28:40;;;;;;;41.63;24.37;;;;;;;1.07;77.45;95314.78;1718172;82;21018;-45
2022/12/28 01:31:10;;;;;;;43.45;25.20;;;;;;;1.07;77.82;95314.22;1718167;82;20995;-45
2022/12/28 01:33:37;;;;;;;45.78;24.60;;;;;;;1.07;77.43;95325.05;1712377;83;20990;-45
2022/12/28 01:36:08;;;;;;;51.55;30.23;;;;;;;1.04;77.53;95317.68;1718171;83;21094;-45
2022/12/28 01:38:37;;;;;;;50.20;31.33;;;;;;;1.01;77.17;95319.78;1718079;83;21335;-45
2022/12/28 01:41:09;;;;;;;57.33;35.10;;;;;;;0.97;77.26;95320.30;1712537;82;20977;-44
2022/12/28 01:43:44;;;;;;;50.70;30.40;;;;;;;0.96;77.29;95311.97;1714187;82;20993;-45
2022/12/28 01:46:33;;;;;;;42.80;27.17;;;;;;;0.96;77.16;95306.55;1660749;85;21067;-45
2022/12/28 01:49:07;;;;;;;38.50;23.67;;;;;;;0.97;77.81;95311.41;1663826;84;20995;-44
2022/12/28 01:51:47;;;;;;;43.40;24.18;;;;;;;1.00;77.23;95318.79;1658986;84;21187;-44
2022/12/28 01:54:14;;;;;;;59.42;30.88;;;;;;;0.97;77.19;95314.88;1649099;84;20982;-44
2022/12/28 01:56:41;;;;;;;59.18;33.00;;;;;;;0.98;76.99;95311.02;1651443;84;21026;-45
2022/12/28 01:59:08;;;;;;;57.33;31.30;;;;;;;0.90;77.14;95314.83;1635835;86;21063;-45
2022/12/28 02:01:36;;;;;;;42.53;26.33;;;;;;;0.92;77.37;95319.88;1646782;84;21077;-44
2022/12/28 02:04:03;;;;;;;38.38;23.73;;;;;;;0.95;77.53;95322.61;1649858;85;21123;-46
2022/12/28 02:06:30;;;;;;;48.08;27.62;;;;;;;0.92;77.12;95317.17;1630086;86;21513;-45
2022/12/28 02:09:10;;;;;;;69.10;37.83;;;;;;;0.87;77.07;95318.28;1645063;86;21010;-46
2022/12/28 02:11:37;;;;;;;33.90;20.75;;;;;;;0.87;77.07;95318.84;1648292;86;21059;-44
2022/12/28 02:14:06;;;;;;;35.70;20.80;;;;;;;0.84;77.28;95313.61;1645799;86;21479;-44
2022/12/28 02:16:33;;;;;;;51.77;27.98;;;;;;;0.87;77.32;95317.48;1644989;86;21299;-44
2022/12/28 02:18:59;;;;;;;55.15;28.12;;;;;;;0.93;77.62;95313.31;1648975;86;20993;-45
2022/12/28 02:22:11;;;;;;;34.70;20.08;;;;;;;0.98;77.10;95317.80;1628134;86;21060;-45
2022/12/28 02:25:06;;;;;;;56.90;26.93;;;;;;;0.94;76.74;95315.63;1687381;83;21107;-45
2022/12/28 02:28:14;;;;;;;60.43;32.53;;;;;;;0.78;76.52;95312.95;1697881;83;20974;-45
2022/12/28 02:31:04;;;;;;;71.45;34.67;;;;;;;0.60;76.92;95316.05;1692087;82;21187;-44
2022/12/28 02:33:39;;;;;;;97.72;43.58;;;;;;;0.44;77.39;95317.59;1682532;84;21097;-44
2022/12/28 02:36:17;;;;;;;109.50;48.90;;;;;;;0.43;78.22;95321.44;1660963;83;21108;-45
2022/12/28 02:38:56;;;;;;;84.52;41.40;;;;;;;0.50;78.38;95318.05;1580449;89;21617;-44
2022/12/28 02:41:25;;;;;;;105.58;50.05;;;;;;;0.57;78.05;95325.67;1580199;89;21082;-45
2022/12/28 02:43:53;;;;;;;83.30;40.73;;;;;;;0.63;78.40;95329.60;1577221;89;21290;-45
2022/12/28 02:52:45;;;;;;;69.70;35.52;;;;;;;0.70;76.72;95336.47;1591103;89;21478;-44
2022/12/28 02:59:05;;;;;;;55.05;29.23;;;;;;;0.68;76.91;95333.91;1564674;90;22147;-46
2022/12/28 03:02:00;;;;;;;49.10;26.15;;;;;;;0.73;76.80;95334.37;1561479;90;21070;-45
2022/12/28 03:05:09;;;;;;;41.00;21.82;;;;;;;0.79;76.66;95337.53;1562107;90;21546;-45
2022/12/28 03:11:04;;;;;;;88.95;37.75;;;;;;;0.63;76.20;95345.84;1556015;91;21525;-45
2022/12/28 03:13:43;;;;;;;72.40;31.60;;;;;;;0.52;76.53;95348.22;1522399;93;21271;-45
2022/12/28 03:16:28;;;;;;;56.50;27.42;;;;;;;0.52;76.88;95349.02;1547382;92;21034;-45
2022/12/28 03:32:58;;;;;;;35.63;18.20;;;;;;;0.27;76.23;95347.14;1508763;92;21067;-44
2022/12/28 03:35:51;;;;;;;39.27;20.65;;;;;;;0.24;76.30;95356.00;1569372;88;21521;-46
2022/12/28 03:38:27;;;;;;;34.23;19.02;;;;;;;0.22;76.47;95353.64;1618126;87;21022;-45
2022/12/28 03:41:01;;;;;;;41.05;22.30;;;;;;;0.24;76.64;95352.70;1615247;87;21412;-44
2022/12/28 03:46:28;;;;;;;73.97;35.73;;;;;;;0.40;76.72;95360.06;1588956;89;21117;-44
2022/12/28 03:48:53;;;;;;;38.67;20.97;;;;;;;0.43;76.20;95360.68;1592098;89;21625;-43
2022/12/28 03:51:22;;;;;;;39.15;20.65;;;;;;;0.45;76.25;95366.50;1545975;91;21506;-45
2022/12/28 03:53:49;;;;;;;41.83;23.27;;;;;;;0.49;76.18;95372.77;1569434;90;21875;-44
2022/12/28 03:56:20;;;;;;;45.78;27.00;;;;;;;0.55;76.11;95369.92;1614884;86;21057;-44
2022/12/28 03:58:48;;;;;;;43.87;27.45;;;;;;;0.54;76.00;95368.93;1655495;86;21106;-44
2022/12/28 04:01:15;;;;;;;40.48;24.45;;;;;;;0.47;76.23;95369.64;1649058;85;21015;-44
2022/12/28 04:03:42;;;;;;;27.62;19.60;;;;;;;0.42;76.31;95371.30;1648673;86;21057;-45
2022/12/28 04:06:15;;;;;;;21.87;15.80;;;;;;;0.31;76.25;95371.75;1649272;86;21280;-44
2022/12/28 04:08:44;;;;;;;23.87;17.45;;;;;;;0.16;76.51;95365.94;1666674;85;21062;-45
2022/12/28 04:11:12;;;;;;;27.75;20.88;;;;;;;0.07;76.76;95369.47;1674201;84;21094;-44
2022/12/28 04:13:39;;;;;;;26.73;20.32;;;;;;;0.06;77.55;95365.20;1671410;84;21052;-45
2022/12/28 04:16:10;;;;;;;27.90;18.55;;;;;;;0.10;77.30;95368.77;1661505;84;21467;-45
2022/12/28 04:18:40;;;;;;;34.83;22.90;;;;;;;0.11;77.43;95367.62;1669273;84;21279;-46
2022/12/28 04:21:09;;;;;;;26.20;16.37;;;;;;;0.10;77.45;95365.27;1675167;85;21037;-45
2022/12/28 04:23:39;;;;;;;23.92;16.05;;;;;;;0.06;77.43;95374.67;1677709;84;21616;-45
2022/12/28 04:26:16;;;;;;;22.40;15.55;;;;;;;-0.01;77.52;95367.82;1564379;90;21399;-46
2022/12/28 04:28:44;;;;;;;25.17;16.62;;;;;;;0.02;78.10;95369.80;1557000;90;21537;-46
2022/12/28 04:31:16;;;;;;;29.27;19.77;;;;;;;0.09;77.92;95371.27;1537473;92;21312;-44
2022/12/28 04:33:44;;;;;;;35.20;23.35;;;;;;;0.09;77.81;95367.20;1529641;92;21079;-45
2022/12/28 04:36:15;;;;;;;33.50;22.87;;;;;;;0.05;77.58;95366.35;1532801;93;21057;-46
2022/12/28 04:38:43;;;;;;;33.33;23.20;;;;;;;0.03;77.66;95365.94;1535169;93;21595;-45
2022/12/28 04:41:10;;;;;;;29.50;21.55;;;;;;;0.01;77.47;95364.77;1530321;92;21641;-46
2022/12/28 04:43:38;;;;;;;34.15;22.22;;;;;;;-0.02;77.45;95366.27;1582781;89;22047;-45
2022/12/28 04:46:12;;;;;;;33.40;21.60;;;;;;;-0.03;77.50;95368.55;1600322;89;21040;-46
2022/12/28 04:48:40;;;;;;;36.30;24.47;;;;;;;-0.10;77.46;95371.94;1600918;89;20985;-45
2022/12/28 04:51:09;;;;;;;40.08;24.72;;;;;;;-0.15;77.89;95379.02;1599739;89;21602;-45
2022/12/28 04:53:38;;;;;;;47.10;30.08;;;;;;;-0.13;78.02;95390.80;1601416;89;21591;-47
2022/12/28 04:56:08;;;;;;;38.67;27.20;;;;;;;-0.08;78.08;95391.86;1599029;89;21521;-45
2022/12/28 04:58:36;;;;;;;41.45;26.45;;;;;;;-0.06;77.78;95390.92;1598710;88;21008;-44
2022/12/28 05:01:12;;;;;;;49.85;32.28;;;;;;;-0.05;78.04;95393.24;1599960;89;21604;-45
2022/12/28 05:03:41;;;;;;;50.35;32.23;;;;;;;0.04;78.48;95395.13;1601284;89;21590;-45
2022/12/28 05:06:14;;;;;;;45.43;30.95;;;;;;;0.16;78.02;95387.58;1579672;89;21065;-46
2022/12/28 05:08:41;;;;;;;53.90;31.40;;;;;;;0.15;77.16;95394.13;1634665;85;21164;-44
2022/12/28 05:11:13;;;;;;;61.68;34.20;;;;;;;0.08;77.10;95392.66;1660411;85;21086;-44
2022/12/28 05:13:40;;;;;;;160.93;74.95;;;;;;;0.06;77.16;95392.25;1650648;86;20993;-45
2022/12/28 05:16:10;;;;;;;81.85;46.05;;;;;;;0.06;77.07;95394.95;1652590;86;21023;-44
2022/12/28 05:18:37;;;;;;;81.82;42.80;;;;;;;0.01;76.80;95391.22;1653565;85;21205;-44
2022/12/28 05:21:09;;;;;;;73.65;40.05;;;;;;;-0.12;76.74;95398.56;1632754;83;21727;-45
2022/12/28 05:23:37;;;;;;;63.48;36.48;;;;;;;-0.24;77.00;95398.74;1685626;83;21056;-46
2022/12/28 05:26:06;;;;;;;60.15;35.65;;;;;;;-0.26;77.17;95413.78;1685369;83;21519;-46
2022/12/28 05:28:33;;;;;;;82.25;43.02;;;;;;;-0.32;77.01;95411.16;1699417;83;21498;-45
2022/12/28 05:31:01;;;;;;;65.52;39.10;;;;;;;-0.39;77.24;95411.05;1651035;85;21045;-47
2022/12/28 05:33:29;;;;;;;56.55;34.35;;;;;;;-0.37;77.30;95414.94;1690417;84;21156;-47
2022/12/28 05:35:58;;;;;;;60.55;37.23;;;;;;;-0.42;77.22;95407.14;1674824;85;21172;-50
2022/12/28 05:38:25;;;;;;;93.75;51.92;;;;;;;-0.46;77.37;95402.81;1679265;83;21483;-44
2022/12/28 05:40:52;;;;;;;100.10;54.48;;;;;;;-0.52;77.64;95396.16;1672081;85;21009;-44
2022/12/28 05:43:19;;;;;;;80.97;46.73;;;;;;;-0.53;78.23;95396.74;1685302;83;21056;-44
2022/12/28 05:45:46;;;;;;;109.03;59.85;;;;;;;-0.45;78.56;95394.36;1662605;83;21250;-45
2022/12/28 05:48:13;;;;;;;123.95;63.48;;;;;;;-0.30;78.90;95404.81;1736259;81;20991;-44
2022/12/28 05:50:40;;;;;;;101.92;51.77;;;;;;;-0.21;78.45;95402.66;1692072;82;21024;-47
2022/12/28 05:53:07;;;;;;;73.20;39.00;;;;;;;-0.11;78.18;95412.84;1676510;81;21088;-47
2022/12/28 05:55:34;;;;;;;72.25;36.30;;;;;;;-0.18;77.05;95404.63;1714144;82;21053;-46
2022/12/28 05:58:00;;;;;;;66.87;36.38;;;;;;;-0.31;76.98;95404.61;1715174;82;21139;-46
2022/12/28 06:00:27;;;;;;;71.65;40.20;;;;;;;-0.34;76.82;95408.04;1693908;82;21077;-47
2022/12/28 06:02:54;;;;;;;112.10;60.48;;;;;;;-0.38;76.61;95419.37;1713637;82;21115;-45
2022/12/28 06:05:22;;;;;;;141.80;67.70;;;;;;;-0.46;76.65;95431.18;1717042;82;21016;-45
2022/12/28 06:07:52;;;;;;;94.90;51.83;;;;;;;-0.51;76.97;95430.14;1717484;82;21453;-46
2022/12/28 06:10:19;;;;;;;80.40;47.98;;;;;;;-0.62;76.66;95434.02;1707293;82;21272;-46
2022/12/28 06:12:45;;;;;;;110.80;64.95;;;;;;;-0.84;76.67;95432.62;1749803;81;20974;-45
2022/12/28 06:15:12;;;;;;;114.67;64.03;;;;;;;-1.07;76.83;95423.71;1747828;81;21628;-46
2022/12/28 06:17:38;;;;;;;123.25;69.70;;;;;;;-1.21;77.29;95420.73;1697066;82;21565;-46
2022/12/28 06:20:07;;;;;;;120.62;68.35;;;;;;;-1.20;77.88;95418.23;1756564;80;20990;-46
2022/12/28 06:22:35;;;;;;;109.57;64.53;;;;;;;-1.12;78.03;95419.95;1771621;80;22053;-47
2022/12/28 06:25:05;;;;;;;104.95;61.83;;;;;;;-1.06;78.07;95423.92;1775097;79;21306;-47
2022/12/28 06:27:32;;;;;;;96.45;58.65;;;;;;;-0.96;78.13;95416.60;1799175;78;21096;-46
2022/12/28 06:29:59;;;;;;;96.22;56.85;;;;;;;-0.88;77.92;95420.98;1765668;79;22103;-45
2022/12/28 06:32:26;;;;;;;119.37;65.65;;;;;;;-0.85;77.62;95420.27;1783515;79;21068;-46
2022/12/28 06:34:53;;;;;;;122.22;68.12;;;;;;;-0.80;78.11;95419.99;1782211;79;21095;-45
2022/12/28 06:37:19;;;;;;;143.17;78.62;;;;;;;-0.67;77.95;95416.76;1757352;80;20941;-48
2022/12/28 06:39:46;;;;;;;140.05;76.35;;;;;;;-0.57;77.44;95419.43;1749069;79;21075;-46
2022/12/28 06:42:13;;;;;;;133.35;73.47;;;;;;;-0.52;77.10;95421.27;1766617;79;21011;-46
2022/12/28 06:44:41;;;;;;;118.00;65.70;;;;;;;-0.47;76.74;95425.57;1667620;83;21013;-46
2022/12/28 06:47:08;;;;;;;98.47;54.60;;;;;;;-0.43;76.63;95421.80;1686577;82;22988;-45
2022/12/28 06:49:35;;;;;;;108.22;63.00;;;;;;;-0.39;76.39;95424.56;1686983;83;21032;-46
2022/12/28 06:52:02;;;;;;;161.32;83.80;;;;;;;-0.35;76.83;95419.44;1616796;86;21532;-48
2022/12/28 06:54:30;;;;;;;149.38;86.78;;;;;;;-0.39;76.24;95423.98;1617867;86;21100;-47
2022/12/28 06:56:56;;;;;;;197.70;106.90;;;;;;;-0.49;75.76;95426.50;1605299;86;21215;-46
2022/12/28 06:59:23;;;;;;;170.20;100.20;;;;;;;-0.68;75.84;95409.00;1666895;84;21260;-47
2022/12/28 07:01:50;;;;;;;207.10;109.97;;;;;;;-0.87;76.00;95416.59;1666709;84;21106;-44
2022/12/28 07:04:17;;;;;;;268.67;142.80;;;;;;;-0.95;76.56;95420.86;1636202;85;21176;-47
2022/12/28 07:06:44;;;;;;;222.02;125.47;;;;;;;-0.97;76.80;95428.55;1653500;84;21191;-46
2022/12/28 07:09:13;;;;;;;211.65;115.77;;;;;;;-1.01;77.05;95422.27;1643658;85;21535;-46
2022/12/28 07:11:42;;;;;;;215.95;117.37;;;;;;;-1.00;77.39;95417.11;1610293;86;21621;-45
2022/12/28 07:14:09;;;;;;;207.20;105.67;;;;;;;-0.92;77.60;95429.59;1619285;86;21060;-46
2022/12/28 07:16:35;;;;;;;176.15;97.05;;;;;;;-0.89;77.53;95419.42;1670195;81;21584;-47
2022/12/28 07:19:02;;;;;;;119.13;66.42;;;;;;;-0.88;77.76;95420.98;1703410;81;21127;-47
2022/12/28 07:21:32;;;;;;;130.22;69.77;;;;;;;-0.85;77.95;95418.91;1681875;81;21039;-48
2022/12/28 07:23:59;;;;;;;374.15;157.40;;;;;;;-0.86;77.86;95421.41;1785091;78;21116;-45
2022/12/28 07:26:28;;;;;;;246.72;119.25;;;;;;;-0.87;77.94;95426.04;1708642;79;21562;-47
2022/12/28 07:28:56;;;;;;;170.47;85.95;;;;;;;-0.86;78.21;95427.60;1782393;79;21148;-47
2022/12/28 07:31:29;;;;;;;158.12;86.25;;;;;;;-0.83;78.55;95423.38;1794693;78;21620;-47
2022/12/28 07:33:56;;;;;;;;;;;;;;;-0.65;79.05;95421.23;1769774;79;21005;-45
2022/12/28 07:36:26;;;;;;;194.02;86.50;;;;;;;-0.40;78.77;95434.58;1768204;79;20174;-50
2022/12/28 07:38:53;;;;;;;113.08;58.63;;;;;;;-0.32;78.05;95438.98;1770903;78;21085;-47
2022/12/28 07:41:23;;;;;;;93.90;54.93;;;;;;;-0.22;78.05;95438.95;1782613;78;20994;-46
2022/12/28 07:43:50;;;;;;;104.90;61.20;;;;;;;-0.07;77.97;95429.92;1749377;80;20996;-47
2022/12/28 07:46:23;;;;;;;118.25;69.65;;;;;;;0.01;77.66;95427.73;1728482;80;21086;-45
2022/12/28 07:48:50;;;;;;;293.52;132.30;;;;;;;0.19;77.50;95419.89;1715926;81;22385;-46
2022/12/28 07:51:21;;;;;;;112.68;66.82;;;;;;;0.38;77.78;95412.42;1741587;80;21033;-49
2022/12/28 07:53:54;;;;;;;77.20;49.20;;;;;;;0.59;76.92;95415.41;1740132;80;20997;-47
2022/12/28 07:56:22;;;;;;;103.10;62.27;;;;;;;0.71;76.49;95425.22;1748382;80;21072;-47
2022/12/28 07:58:55;;;;;;;92.67;59.23;;;;;;;0.85;76.00;95424.05;1713840;80;21511;-46
2022/12/28 08:01:30;;;;;;;93.85;59.98;;;;;;;0.94;75.74;95419.14;1721166;81;21257;-45
2022/12/28 08:04:02;;;;;;;86.97;53.10;;;;;;;1.07;75.43;95418.52;1705889;81;21576;-46
2022/12/28 08:06:30;;;;;;;155.63;82.27;;;;;;;1.13;75.55;95414.31;1626608;86;21124;-48
2022/12/28 08:08:59;;;;;;;111.37;64.20;;;;;;;1.27;75.48;95415.83;1559936;88;21579;-48
2022/12/28 08:11:29;;;;;;;110.22;67.35;;;;;;;1.32;75.05;95424.97;1609415;87;21165;-55
2022/12/28 08:13:56;;;;;;;106.10;65.47;;;;;;;1.42;75.10;95425.66;1609989;87;21832;-47
2022/12/28 08:16:25;;;;;;;109.10;63.13;;;;;;;1.58;74.74;95430.84;1602743;87;21637;-48
2022/12/28 08:18:52;;;;;;;84.90;49.80;;;;;;;1.67;74.08;95428.03;1609446;87;21118;-46
2022/12/28 08:21:27;;;;;;;76.92;48.38;;;;;;;1.65;73.41;95433.05;1604257;87;21550;-46
2022/12/28 08:23:54;;;;;;;72.25;43.65;;;;;;;1.59;73.30;95430.48;1562924;90;21184;-48
2022/12/28 08:26:23;;;;;;;50.55;33.15;;;;;;;1.54;73.03;95431.39;1563197;89;21297;-49
2022/12/28 08:28:53;;;;;;;61.08;37.17;;;;;;;1.49;73.05;95435.80;1544958;90;21196;-47
2022/12/28 08:31:26;;;;;;;55.90;34.40;;;;;;;1.45;72.96;95434.41;1583836;89;21561;-46
2022/12/28 08:33:55;;;;;;;51.08;33.92;;;;;;;1.42;73.33;95431.09;1567909;89;21048;-47
2022/12/28 08:36:22;;;;;;;59.03;34.85;;;;;;;1.55;73.78;95435.10;1567645;90;21191;-45
2022/12/28 08:38:49;;;;;;;57.85;39.88;;;;;;;1.63;73.55;95429.94;1561695;90;21467;-46
2022/12/28 08:41:20;;;;;;;66.33;43.00;;;;;;;1.59;73.27;95427.77;1544238;90;21304;-47
2022/12/28 08:43:47;;;;;;;76.35;47.33;;;;;;;1.53;73.40;95427.13;1538840;91;21326;-46
2022/12/28 08:46:17;;;;;;;67.08;43.68;;;;;;;1.53;73.73;95421.11;1537929;91;21152;-46
2022/12/28 08:48:44;;;;;;;71.33;45.25;;;;;;;1.60;74.07;95414.42;1538423;91;21128;-52
2022/12/28 08:51:15;;;;;;;69.12;44.53;;;;;;;1.73;74.14;95412.96;1540793;91;21589;-50
2022/12/28 08:53:42;;;;;;;59.65;37.98;;;;;;;2.06;74.08;95411.49;1522722;91;21164;-50
2022/12/28 08:56:19;;;;;;;58.87;38.28;;;;;;;2.41;73.28;95406.30;1540766;91;21719;-55
2022/12/28 08:58:46;;;;;;;65.20;40.95;;;;;;;2.63;72.75;95401.19;1564037;89;21149;-47
2022/12/28 09:01:21;;;;;;;70.50;44.53;;;;;;;2.71;71.87;95393.29;1573736;89;21110;-51
2022/12/28 09:03:59;;;;;;;56.23;37.88;;;;;;;2.82;71.74;95400.32;1602279;87;21196;-47
2022/12/28 09:06:35;;;;;;;64.95;41.30;;;;;;;3.14;71.08;95395.80;1603413;87;21133;-50
2022/12/28 09:09:04;;;;;;;65.72;42.62;;;;;;;3.47;69.74;95402.86;1606825;87;21129;-49
2022/12/28 09:11:32;;;;;;;76.53;46.28;;;;;;;3.45;68.91;95392.35;1588543;87;21490;-49
2022/12/28 09:13:59;;;;;;;85.62;48.60;;;;;;;3.29;69.24;95388.44;1591863;87;21608;-47
2022/12/28 09:16:26;;;;;;;67.00;42.60;;;;;;;3.35;69.74;95384.17;1568406;88;21202;-46
2022/12/28 09:18:58;;;;;;;68.87;42.73;;;;;;;3.58;69.40;95382.10;1583371;87;21163;-47
2022/12/28 09:21:30;;;;;;;65.45;37.83;;;;;;;3.77;68.67;95374.92;1635315;84;21412;-48
2022/12/28 09:23:57;;;;;;;;;;;;;;;4.04;68.50;95376.08;1664795;84;21936;-48
2022/12/28 09:26:26;;;;;;;46.05;29.15;;;;;;;4.25;67.52;95367.12;1663841;83;20183;-47
2022/12/28 09:28:59;;;;;;;47.55;29.37;;;;;;;4.36;66.95;95368.66;1650933;84;21183;-48
2022/12/28 09:31:29;;;;;;;68.17;43.23;;;;;;;4.46;66.32;95367.08;1622875;86;21012;-47
2022/12/28 09:34:00;;;;;;;77.30;48.35;;;;;;;4.61;65.69;95360.42;1629518;86;21085;-50
2022/12/28 09:36:31;;;;;;;50.28;34.45;;;;;;;4.88;65.63;95348.64;1628886;86;21150;-48
2022/12/28 09:39:07;;;;;;;53.40;37.05;;;;;;;5.27;64.18;95347.26;1620536;85;21162;-47
2022/12/28 09:41:49;;;;;;;44.93;30.45;;;;;;;5.72;63.43;95348.14;1593699;87;21185;-48
2022/12/28 09:44:39;;;;;;;50.83;34.98;;;;;;;6.00;62.48;95344.63;1533540;90;21510;-47
2022/12/28 09:47:26;;;;;;;66.67;41.33;;;;;;;6.15;61.90;95343.94;1542617;92;21142;-46
2022/12/28 09:50:17;;;;;;;81.63;49.55;;;;;;;6.25;60.62;95332.12;1520479;93;21628;-47
2022/12/28 09:52:59;;;;;;;67.58;42.62;;;;;;;6.17;60.44;95327.30;1591923;87;21074;-48
2022/12/28 09:55:26;;;;;;;55.95;35.33;;;;;;;6.21;60.48;95328.65;1550810;89;21323;-47
2022/12/28 09:57:56;;;;;;;60.25;38.78;;;;;;;6.43;59.04;95327.25;1572759;89;20974;-47
2022/12/28 10:00:34;;;;;;;62.93;38.58;;;;;;;6.65;58.07;95317.63;1547353;89;21101;-49
2022/12/28 10:03:03;;;;;;;57.45;37.40;;;;;;;6.64;58.10;95325.66;1565950;87;21195;-48
2022/12/28 10:05:30;;;;;;;56.30;34.92;;;;;;;6.79;57.55;95325.68;1581004;88;21273;-51
2022/12/28 10:07:57;;;;;;;53.05;33.02;;;;;;;7.09;57.02;95317.69;1593233;87;21132;-51
2022/12/28 10:10:25;;;;;;;40.45;24.32;;;;;;;7.42;55.89;95319.59;1580140;87;21192;-48
2022/12/28 10:12:52;;;;;;;32.23;21.70;;;;;;;7.65;54.60;95314.16;1578615;89;21028;-48
2022/12/28 10:15:19;;;;;;;38.92;25.35;;;;;;;8.07;53.36;95305.25;1610448;87;21224;-50
2022/12/28 10:17:46;;;;;;;36.13;21.55;;;;;;;8.39;52.75;95306.08;1590594;88;21691;-50
2022/12/28 10:20:16;;;;;;;35.60;24.10;;;;;;;8.52;52.36;95299.59;1597238;88;21328;-47
2022/12/28 10:22:44;;;;;;;60.92;39.90;;;;;;;8.53;52.35;95295.65;1607228;87;21647;-48
2022/12/28 10:25:19;;;;;;;48.50;32.88;;;;;;;8.58;53.02;95287.54;1622014;87;21238;-48
2022/12/28 10:27:45;;;;;;;57.03;37.05;;;;;;;8.82;52.78;95286.27;1643573;85;21082;-46
2022/12/28 10:30:25;;;;;;;57.55;39.15;;;;;;;9.07;52.64;95286.70;1673100;84;21194;-48
2022/12/28 10:32:57;;;;;;;55.83;35.63;;;;;;;9.31;52.28;95283.26;1587716;88;21183;-52
2022/12/28 10:35:32;;;;;;;48.23;33.15;;;;;;;9.36;51.35;95278.04;1577922;89;21140;-49
2022/12/28 10:38:07;;;;;;;45.98;30.75;;;;;;;9.27;51.42;95269.59;1566010;87;21722;-46
2022/12/28 10:40:36;;;;;;;51.92;30.45;;;;;;;9.22;50.92;95270.73;1551740;90;21612;-47
2022/12/28 10:43:03;;;;;;;40.83;26.48;;;;;;;9.04;50.87;95260.72;1473490;96;21558;-46
2022/12/28 10:45:43;;;;;;;33.28;21.30;;;;;;;9.04;51.16;95266.22;1474824;96;21198;-49
2022/12/28 10:48:18;;;;;;;17.73;11.57;;;;;;;9.32;49.55;95258.72;1473873;95;21262;-48
2022/12/28 10:51:14;;;;;;;10.88;6.58;;;;;;;9.59;48.81;95253.17;1450810;95;21276;-47
2022/12/28 10:53:56;;;;;;;11.22;7.50;;;;;;;9.88;46.92;95261.52;1435535;96;21167;-49
2022/12/28 10:56:26;;;;;;;9.60;6.50;;;;;;;10.39;45.00;95245.50;1412709;99;21152;-47
2022/12/28 10:59:13;;;;;;;12.50;7.00;;;;;;;10.92;41.99;95238.09;1413175;99;21709;-50
2022/12/28 11:01:41;;;;;;;10.20;6.45;;;;;;;11.47;41.90;95234.86;1402298;100;21148;-50
2022/12/28 11:04:19;;;;;;;22.77;11.78;;;;;;;11.67;40.03;95232.68;1400348;101;21213;-48
2022/12/28 11:06:55;;;;;;;19.55;9.38;;;;;;;11.48;40.00;95228.14;1404404;99;21684;-49
2022/12/28 11:09:30;;;;;;;15.32;8.83;;;;;;;11.28;39.23;95226.20;1404428;100;21219;-48
2022/12/28 11:12:24;;;;;;;18.02;10.70;;;;;;;11.08;39.36;95233.11;1370729;102;21412;-51
2022/12/28 11:14:51;;;;;;;14.00;8.70;;;;;;;10.96;39.57;95226.99;1354108;101;21211;-48
2022/12/28 11:17:21;;;;;;;15.45;8.90;;;;;;;11.06;39.26;95229.43;1381451;101;21667;-50
2022/12/28 11:19:51;;;;;;;14.05;8.70;;;;;;;11.24;38.87;95222.79;1395830;99;21188;-47
2022/12/28 11:22:25;;;;;;;10.95;7.22;;;;;;;11.11;38.72;95219.24;1398471;98;21714;-49
2022/12/28 11:24:53;;;;;;;10.40;6.30;;;;;;;11.09;39.06;95216.16;1405434;99;21328;-46
2022/12/28 11:27:22;;;;;;;12.45;5.95;;;;;;;11.45;37.45;95216.63;1402779;99;21313;-47
2022/12/28 11:29:51;;;;;;;13.78;8.35;;;;;;;11.66;37.34;95211.84;1410874;99;21171;-48
2022/12/28 11:32:26;;;;;;;12.28;10.30;;;;;;;11.89;37.12;95207.34;1443180;94;21232;-50
2022/12/28 11:34:53;;;;;;;6.05;3.70;;;;;;;12.19;36.25;95215.00;1448075;96;21108;-49
2022/12/28 11:37:20;;;;;;;11.18;7.17;;;;;;;12.50;34.37;95195.20;1466045;94;21235;-49
2022/12/28 11:39:50;;;;;;;19.67;8.68;;;;;;;12.56;35.08;95201.67;1597383;88;21138;-49
2022/12/28 11:42:41;;;;;;;19.52;10.82;;;;;;;12.80;35.65;95205.52;1708188;81;21611;-48
2022/12/28 11:45:15;;;;;;;17.45;7.15;;;;;;;13.23;35.22;95200.00;1762583;80;21681;-50
2022/12/28 11:47:44;;;;;;;13.53;8.43;;;;;;;13.58;34.32;95198.00;1740047;80;21065;-50
2022/12/28 11:50:40;;;;;;;27.00;8.43;;;;;;;13.73;33.30;95185.75;1725104;80;21273;-46
2022/12/28 11:53:34;;;;;;;11.90;5.08;;;;;;;14.00;33.64;95192.75;1747149;80;21641;-45
2022/12/28 11:56:17;;;;;;;14.40;4.03;;;;;;;14.33;32.12;95188.23;1750258;80;21078;-46
2022/12/28 11:59:01;;;;;;;8.78;3.80;;;;;;;14.39;31.74;95193.30;1646471;84;21212;-47
2022/12/28 12:01:39;;;;;;;8.03;4.42;;;;;;;14.39;30.71;95189.89;1666749;84;21103;-46
2022/12/28 12:04:10;;;;;;;10.18;5.17;;;;;;;14.43;30.59;95182.83;1674754;84;21374;-49
2022/12/28 12:06:48;;;;;;;10.35;7.25;;;;;;;14.42;30.37;95186.83;1667482;84;26834;-49
2022/12/28 12:09:23;;;;;;;9.40;5.95;;;;;;;14.62;30.29;95192.83;1659602;83;21109;-47
2022/12/28 12:11:56;;;;;;;11.33;5.65;;;;;;;14.95;30.37;95190.95;1592253;86;21156;-48